Time;durP1;ratioP1;P1;durP2;ratioP2;P2;SDS_P1;SDS_P2;PMS_P1;PMS_P2;Temp;Humidity;BMP_temperature;BMP_pressure;BME280_temperature;BME280_humidity;BME280_pressure;Samples;Min_cycle;Max_cycle;Signal;HPM_P1;HPM_P2
2022/12/29 00:00:07;;;;;;;9.90;9.50;;;10.00;99.90;;;;;;4990289;28;20071;-70
2022/12/29 00:02:40;;;;;;;10.32;9.93;;;10.00;99.90;;;;;;4986448;28;20137;-70
2022/12/29 00:05:07;;;;;;;9.15;8.75;;;10.10;99.90;;;;;;4992593;28;20507;-71
2022/12/29 00:07:34;;;;;;;8.27;7.80;;;10.00;99.90;;;;;;4982320;28;20495;-71
2022/12/29 00:10:01;;;;;;;8.10;7.50;;;9.90;99.90;;;;;;4992138;28;20051;-70
2022/12/29 00:15:36;;;;;;;7.40;7.00;;;9.80;99.90;;;;;;4981439;28;20161;-70
2022/12/29 00:18:00;;;;;;;7.38;7.07;;;9.80;99.90;;;;;;4995304;28;20124;-70
2022/12/29 00:37:05;;;;;;;9.10;8.70;;;10.10;99.90;;;;;;4988222;28;20056;-70
2022/12/29 00:45:04;;;;;;;9.98;9.55;;;10.20;99.90;;;;;;4985033;28;20636;-71
2022/12/29 00:47:31;;;;;;;9.68;9.25;;;10.20;99.90;;;;;;4976024;28;20513;-70
2022/12/29 00:49:57;;;;;;;9.43;9.02;;;10.20;99.90;;;;;;4983937;28;20050;-70
2022/12/29 00:52:24;;;;;;;10.00;9.60;;;10.20;99.90;;;;;;4988764;28;20486;-71
2022/12/29 00:54:51;;;;;;;9.43;9.05;;;10.30;99.90;;;;;;4989894;28;20092;-70
2022/12/29 00:57:18;;;;;;;9.95;9.50;;;10.30;99.90;;;;;;4984099;28;20026;-70
2022/12/29 00:59:45;;;;;;;9.48;9.13;;;10.30;99.90;;;;;;4983503;28;20047;-70
2022/12/29 01:02:11;;;;;;;9.70;9.30;;;10.30;99.90;;;;;;4991546;28;20038;-70
2022/12/29 01:04:38;;;;;;;9.23;8.77;;;10.30;99.90;;;;;;4965981;28;20153;-70
2022/12/29 01:07:05;;;;;;;9.25;8.88;;;10.30;99.90;;;;;;4983271;28;20070;-70
2022/12/29 01:12:40;;;;;;;;;;;10.30;99.90;;;;;;4989388;28;20482;-70
2022/12/29 01:15:06;;;;;;;8.73;8.38;;;10.20;99.90;;;;;;4994946;28;19922;-70
2022/12/29 01:17:33;;;;;;;9.18;8.80;;;10.20;99.90;;;;;;4988835;28;20049;-70
2022/12/29 01:20:00;;;;;;;9.55;9.07;;;10.30;99.90;;;;;;4992239;28;20108;-69
2022/12/29 01:22:27;;;;;;;9.57;9.18;;;10.30;99.90;;;;;;4997776;28;20044;-70
2022/12/29 01:24:55;;;;;;;9.95;9.40;;;10.30;99.90;;;;;;4991647;28;20042;-69
2022/12/29 01:27:21;;;;;;;9.75;9.35;;;10.40;99.90;;;;;;4994190;28;20431;-70
2022/12/29 01:29:48;;;;;;;10.43;10.02;;;10.40;99.90;;;;;;4993030;28;20563;-70
2022/12/29 01:32:15;;;;;;;10.32;9.93;;;10.40;99.90;;;;;;4991545;28;20432;-70
2022/12/29 01:34:44;;;;;;;9.98;9.57;;;10.40;99.90;;;;;;4981746;28;20074;-70
2022/12/29 01:37:11;;;;;;;9.50;9.10;;;10.40;99.90;;;;;;4981493;28;20247;-70
2022/12/29 01:39:38;;;;;;;10.77;10.00;;;10.40;99.90;;;;;;4994334;28;20095;-70
2022/12/29 01:42:05;;;;;;;10.82;10.27;;;10.30;99.90;;;;;;4995678;28;20053;-70
2022/12/29 01:44:54;;;;;;;10.32;9.63;;;9.90;99.90;;;;;;4978340;28;20354;-70
2022/12/29 01:47:48;;;;;;;8.68;8.07;;;9.50;99.90;;;;;;4993488;28;20465;-70
2022/12/29 01:50:26;;;;;;;7.57;6.97;;;9.10;99.90;;;;;;4993351;28;20641;-69
2022/12/29 01:53:01;;;;;;;6.93;6.43;;;8.90;99.90;;;;;;4994874;28;20088;-70
2022/12/29 01:55:32;;;;;;;6.40;6.00;;;8.80;99.90;;;;;;5000555;28;20119;-70
2022/12/29 01:58:03;;;;;;;5.85;5.43;;;8.70;99.90;;;;;;4996208;28;20049;-70
2022/12/29 02:00:30;;;;;;;9.30;6.13;;;8.70;99.90;;;;;;4990147;28;20046;-70
2022/12/29 02:02:57;;;;;;;5.95;5.43;;;8.70;99.90;;;;;;4988763;28;20608;-70
2022/12/29 02:05:31;;;;;;;6.35;5.82;;;8.70;99.90;;;;;;4993902;28;20057;-70
2022/12/29 02:08:00;;;;;;;6.72;6.07;;;8.70;99.90;;;;;;4997526;28;20361;-70
2022/12/29 02:10:29;;;;;;;7.13;5.85;;;8.70;99.90;;;;;;4989898;28;20038;-70
2022/12/29 02:12:56;;;;;;;6.82;6.22;;;8.70;99.90;;;;;;4995074;28;20053;-70
2022/12/29 02:15:48;;;;;;;5.35;5.05;;;8.80;99.90;;;;;;4994543;28;20096;-71
2022/12/29 02:18:26;;;;;;;6.55;5.93;;;8.70;99.90;;;;;;4992592;28;20058;-70
2022/12/29 02:21:14;;;;;;;6.38;5.88;;;8.70;99.90;;;;;;4993975;28;20468;-71
2022/12/29 02:23:51;;;;;;;6.18;5.63;;;8.70;99.90;;;;;;4992016;28;20039;-70
2022/12/29 02:26:46;;;;;;;5.00;4.70;;;8.70;99.90;;;;;;4991434;28;20037;-70
2022/12/29 02:29:34;;;;;;;4.78;4.57;;;8.90;99.90;;;;;;4994823;28;20057;-70
2022/12/29 02:32:15;;;;;;;7.53;7.13;;;9.40;99.90;;;;;;4962399;28;20057;-70
2022/12/29 02:35:04;;;;;;;9.77;9.38;;;10.10;99.90;;;;;;4977825;28;20732;-70
2022/12/29 02:38:14;;;;;;;11.13;10.70;;;10.60;99.90;;;;;;4973737;28;20440;-70
2022/12/29 02:40:51;;;;;;;11.68;11.23;;;10.80;99.90;;;;;;5001438;28;20117;-70
2022/12/29 02:43:38;;;;;;;10.02;9.63;;;10.90;99.90;;;;;;4955871;28;20574;-70
2022/12/29 02:46:16;;;;;;;10.00;9.60;;;10.70;99.90;;;;;;4967874;28;20368;-70
2022/12/29 02:48:58;;;;;;;10.60;10.10;;;10.60;99.90;;;;;;4964722;28;20081;-70
2022/12/29 02:51:38;;;;;;;10.70;10.30;;;10.60;99.90;;;;;;4981941;28;20381;-70
2022/12/29 02:56:50;;;;;;;11.40;10.88;;;10.70;99.90;;;;;;4981516;28;20461;-71
2022/12/29 02:59:18;;;;;;;11.43;11.02;;;10.80;99.90;;;;;;4981999;28;20069;-70
2022/12/29 03:02:20;;;;;;;11.18;10.77;;;10.70;99.90;;;;;;5009308;23;20070;-73
2022/12/29 03:04:58;;;;;;;11.10;10.60;;;10.80;99.90;;;;;;4994805;28;20464;-73
2022/12/29 03:07:44;;;;;;;11.48;11.07;;;10.70;99.90;;;;;;4999103;28;20508;-72
2022/12/29 03:10:28;;;;;;;12.05;11.57;;;10.70;99.90;;;;;;4976614;28;20132;-71
2022/12/29 03:16:32;;;;;;;12.18;11.57;;;10.80;99.90;;;;;;4993087;28;20053;-71
2022/12/29 03:19:21;;;;;;;13.30;12.80;;;10.70;99.90;;;;;;4977290;28;20052;-71
2022/12/29 03:24:57;;;;;;;13.43;12.88;;;10.80;99.90;;;;;;5004690;28;20054;-71
2022/12/29 03:27:41;;;;;;;13.10;12.60;;;10.90;99.90;;;;;;4972814;28;20042;-71
2022/12/29 03:30:09;;;;;;;13.80;13.30;;;10.90;99.90;;;;;;4975903;28;20661;-70
2022/12/29 03:32:42;;;;;;;13.90;13.30;;;10.90;99.90;;;;;;4976635;28;20046;-72
2022/12/29 03:35:14;;;;;;;13.85;13.27;;;11.00;99.90;;;;;;4976695;28;20042;-71
2022/12/29 03:37:49;;;;;;;14.13;13.32;;;11.00;99.90;;;;;;4989566;28;20053;-71
2022/12/29 03:40:17;;;;;;;13.85;13.25;;;11.00;99.90;;;;;;4973787;28;20138;-72
2022/12/29 03:42:46;;;;;;;13.10;12.60;;;11.00;99.90;;;;;;4979957;28;20042;-71
2022/12/29 03:45:13;;;;;;;13.27;12.77;;;10.90;99.90;;;;;;4965757;28;20057;-70
2022/12/29 03:47:40;;;;;;;13.40;12.90;;;10.90;99.90;;;;;;4979928;28;20058;-73
2022/12/29 03:50:08;;;;;;;14.05;13.45;;;10.90;99.90;;;;;;4979726;28;20054;-72
2022/12/29 03:52:39;;;;;;;14.55;13.90;;;10.90;99.90;;;;;;4963069;28;20125;-71
2022/12/29 03:55:06;;;;;;;13.85;13.25;;;10.80;99.90;;;;;;4983834;28;20046;-72
2022/12/29 03:57:33;;;;;;;13.90;13.30;;;10.90;99.90;;;;;;4976616;28;20274;-71
2022/12/29 04:00:06;;;;;;;14.40;13.70;;;10.90;99.90;;;;;;4978548;28;20508;-73
2022/12/29 04:02:40;;;;;;;14.60;13.93;;;11.00;99.90;;;;;;4979838;28;20469;-73
2022/12/29 04:05:10;;;;;;;14.93;14.23;;;11.00;99.90;;;;;;4980423;28;20496;-73
2022/12/29 04:07:37;;;;;;;14.73;14.07;;;10.90;99.90;;;;;;4977563;28;20038;-71
2022/12/29 04:10:04;;;;;;;14.90;14.20;;;11.00;99.90;;;;;;4963571;28;20043;-73
2022/12/29 04:12:33;;;;;;;14.98;14.15;;;11.00;99.90;;;;;;4960495;28;21165;-72
2022/12/29 04:15:00;;;;;;;14.70;14.10;;;11.00;99.90;;;;;;4999862;28;20050;-71
2022/12/29 04:17:27;;;;;;;14.50;13.90;;;11.00;99.90;;;;;;4961841;28;20057;-72
2022/12/29 04:20:59;;;;;;;14.48;13.77;;;10.90;99.90;;;;;;4980016;28;20133;-70
2022/12/29 04:22:40;;;;;;;15.27;14.57;;;11.00;99.90;;;;;;5001122;28;20046;-71
2022/12/29 04:25:07;;;;;;;14.57;13.90;;;11.00;99.90;;;;;;4996136;28;20046;-72
2022/12/29 04:27:34;;;;;;;15.48;14.82;;;11.00;99.90;;;;;;4975843;28;20093;-70
2022/12/29 04:30:17;;;;;;;14.88;14.23;;;11.10;99.90;;;;;;4993091;28;20299;-72
2022/12/29 04:32:58;;;;;;;14.80;14.20;;;11.00;99.90;;;;;;4979073;28;20073;-72
2022/12/29 04:35:25;;;;;;;14.20;13.60;;;11.00;99.90;;;;;;4990688;28;20045;-73
2022/12/29 04:37:52;;;;;;;14.35;13.75;;;10.90;99.90;;;;;;4963184;28;20113;-71
2022/12/29 04:40:18;;;;;;;14.13;13.52;;;10.90;99.90;;;;;;4991925;28;20046;-72
2022/12/29 04:42:45;;;;;;;14.35;13.70;;;10.90;99.90;;;;;;4977777;28;20513;-72
2022/12/29 04:45:12;;;;;;;14.20;13.60;;;10.90;99.90;;;;;;4982504;28;20563;-71
2022/12/29 04:47:51;;;;;;;14.27;13.73;;;10.90;99.90;;;;;;4993400;28;20042;-72
2022/12/29 04:50:47;;;;;;;13.90;13.30;;;10.90;99.90;;;;;;4994529;28;20046;-72
2022/12/29 04:53:17;;;;;;;13.80;13.30;;;10.90;99.90;;;;;;4992266;28;20523;-72
2022/12/29 04:55:51;;;;;;;14.02;13.38;;;10.80;99.90;;;;;;4979137;28;20229;-73
2022/12/29 04:58:19;;;;;;;13.00;12.50;;;10.80;99.90;;;;;;4992579;28;20038;-72
2022/12/29 05:00:50;;;;;;;13.20;12.60;;;10.70;99.90;;;;;;4977236;28;20504;-71
2022/12/29 05:03:17;;;;;;;12.73;12.23;;;10.70;99.90;;;;;;4960133;28;20054;-72
2022/12/29 05:05:44;;;;;;;13.05;12.55;;;10.70;99.90;;;;;;4994186;28;20625;-71
2022/12/29 05:08:11;;;;;;;13.20;12.70;;;10.80;99.90;;;;;;4990191;28;20047;-72
2022/12/29 05:10:38;;;;;;;13.68;13.10;;;10.80;99.90;;;;;;4975334;28;20439;-73
2022/12/29 05:13:10;;;;;;;14.30;13.60;;;10.80;99.90;;;;;;4994603;28;20093;-72
2022/12/29 05:15:37;;;;;;;13.57;12.88;;;10.80;99.90;;;;;;4977167;28;20279;-73
2022/12/29 05:18:04;;;;;;;12.88;12.38;;;10.80;99.90;;;;;;4982784;28;20496;-71
2022/12/29 05:20:31;;;;;;;13.15;12.50;;;10.80;99.90;;;;;;4974431;28;20053;-71
2022/12/29 05:22:58;;;;;;;13.10;12.40;;;10.80;99.90;;;;;;4994654;28;20077;-71
2022/12/29 05:25:25;;;;;;;12.93;12.43;;;10.80;99.90;;;;;;5008560;28;20042;-72
2022/12/29 05:27:59;;;;;;;12.00;11.60;;;10.80;99.90;;;;;;4976032;28;20050;-71
2022/12/29 05:30:42;;;;;;;12.70;12.10;;;10.80;99.90;;;;;;4991026;28;20360;-71
2022/12/29 05:33:11;;;;;;;12.50;12.00;;;10.90;99.90;;;;;;4978319;28;20049;-71
2022/12/29 05:35:38;;;;;;;13.20;12.60;;;10.80;99.90;;;;;;4992521;28;20269;-71
2022/12/29 05:38:05;;;;;;;12.50;12.00;;;10.80;99.90;;;;;;4995546;28;20132;-72
2022/12/29 05:40:33;;;;;;;12.80;12.30;;;10.80;99.90;;;;;;4976145;28;20777;-72
2022/12/29 05:43:04;;;;;;;12.35;11.75;;;10.70;99.90;;;;;;4976725;28;20104;-72
2022/12/29 05:45:51;;;;;;;11.77;11.38;;;10.70;99.90;;;;;;4977159;28;20116;-72
2022/12/29 05:48:36;;;;;;;12.35;11.90;;;10.60;99.90;;;;;;4977519;28;20512;-72
2022/12/29 05:51:13;;;;;;;12.20;11.80;;;10.60;99.90;;;;;;4975021;28;20145;-73
2022/12/29 05:53:48;;;;;;;;;;;10.60;99.90;;;;;;4993429;28;20050;-72
2022/12/29 05:56:16;;;;;;;15.68;14.65;;;10.70;99.90;;;;;;4976977;28;19926;-71
2022/12/29 05:58:44;;;;;;;17.63;16.13;;;10.70;99.90;;;;;;4963518;28;20126;-72
2022/12/29 06:01:11;;;;;;;12.32;11.82;;;10.50;99.90;;;;;;4992170;28;20035;-70
2022/12/29 06:03:38;;;;;;;12.63;12.13;;;10.50;99.90;;;;;;4959095;28;20050;-71
2022/12/29 06:06:13;;;;;;;13.00;12.50;;;10.50;99.90;;;;;;4975260;28;20149;-70
2022/12/29 06:08:40;;;;;;;12.82;12.32;;;10.60;99.90;;;;;;4976216;28;20252;-71
2022/12/29 06:11:08;;;;;;;13.00;12.50;;;10.70;99.90;;;;;;4989783;28;20046;-72
2022/12/29 06:13:35;;;;;;;14.13;13.63;;;10.80;99.90;;;;;;4990527;28;20554;-73
2022/12/29 06:16:02;;;;;;;14.40;13.80;;;10.90;99.90;;;;;;4976108;28;20109;-72
2022/12/29 06:18:30;;;;;;;15.10;14.30;;;11.00;99.90;;;;;;4977963;28;20053;-72
2022/12/29 06:21:01;;;;;;;14.55;13.95;;;11.10;99.90;;;;;;4997087;28;20042;-73
2022/12/29 06:23:28;;;;;;;14.90;14.30;;;11.10;99.90;;;;;;4978257;28;20062;-73
2022/12/29 06:25:56;;;;;;;14.90;14.30;;;11.10;99.90;;;;;;4978091;28;20070;-73
2022/12/29 06:28:23;;;;;;;15.23;14.60;;;11.20;99.90;;;;;;4975767;28;20069;-72
2022/12/29 06:30:50;;;;;;;15.32;14.63;;;11.20;99.90;;;;;;4974578;28;20070;-73
2022/12/29 06:33:18;;;;;;;15.38;14.70;;;11.20;99.90;;;;;;4989727;28;20053;-73
2022/12/29 06:35:45;;;;;;;15.70;14.90;;;11.20;99.90;;;;;;4976667;28;20030;-72
2022/12/29 06:38:13;;;;;;;15.68;14.93;;;11.30;99.90;;;;;;4980307;28;20125;-70
2022/12/29 06:40:44;;;;;;;15.18;14.57;;;11.30;99.90;;;;;;5005178;28;20042;-71
2022/12/29 06:43:30;;;;;;;15.35;14.65;;;11.30;99.90;;;;;;4974763;28;20049;-71
2022/12/29 06:46:01;;;;;;;15.52;14.73;;;11.40;99.90;;;;;;4991937;28;20046;-72
2022/12/29 06:48:28;;;;;;;16.23;15.43;;;11.30;99.90;;;;;;4974316;28;20053;-71
2022/12/29 06:50:55;;;;;;;16.10;15.30;;;11.40;99.90;;;;;;4974447;28;20551;-72
2022/12/29 06:53:22;;;;;;;16.05;15.25;;;11.30;99.90;;;;;;4972001;28;20054;-71
2022/12/29 06:55:50;;;;;;;16.20;15.35;;;11.30;99.90;;;;;;4973607;28;20042;-70
2022/12/29 06:58:16;;;;;;;16.45;15.40;;;11.40;99.90;;;;;;4990102;28;20129;-71
2022/12/29 07:00:43;;;;;;;15.40;14.80;;;11.30;99.90;;;;;;4989240;28;20050;-70
2022/12/29 07:03:10;;;;;;;15.05;14.35;;;11.20;99.90;;;;;;4974084;28;20050;-71
2022/12/29 07:05:37;;;;;;;15.65;14.93;;;11.30;99.90;;;;;;4956822;28;20251;-71
2022/12/29 07:08:04;;;;;;;16.55;15.55;;;11.30;99.90;;;;;;4975545;28;20401;-73
2022/12/29 07:10:31;;;;;;;16.40;15.60;;;11.20;99.90;;;;;;4974211;28;20062;-71
2022/12/29 07:12:58;;;;;;;16.35;15.50;;;11.20;99.90;;;;;;4973316;28;20042;-71
2022/12/29 07:15:25;;;;;;;16.27;15.57;;;11.30;99.90;;;;;;4972944;28;20438;-73
2022/12/29 07:17:51;;;;;;;16.60;15.80;;;11.20;99.90;;;;;;4973635;28;20047;-72
2022/12/29 07:20:18;;;;;;;16.17;15.38;;;11.20;99.90;;;;;;4972183;28;20228;-71
2022/12/29 07:22:52;;;;;;;16.23;15.52;;;11.20;99.90;;;;;;4960009;28;21740;-69
2022/12/29 07:25:19;;;;;;;15.88;15.18;;;11.20;99.90;;;;;;4973440;28;20116;-69
2022/12/29 07:27:45;;;;;;;15.80;15.10;;;11.20;99.90;;;;;;4975882;28;20034;-73
2022/12/29 07:30:12;;;;;;;15.77;15.07;;;11.10;99.90;;;;;;4973971;28;20057;-71
2022/12/29 07:32:39;;;;;;;16.00;15.30;;;11.10;99.90;;;;;;4975509;28;20050;-73
2022/12/29 07:35:06;;;;;;;15.30;14.60;;;11.10;99.90;;;;;;4992388;28;20047;-72
2022/12/29 07:37:34;;;;;;;15.77;15.07;;;11.10;99.90;;;;;;4974218;28;21630;-71
2022/12/29 07:40:03;;;;;;;16.13;15.43;;;11.10;99.90;;;;;;4976634;28;20074;-70
2022/12/29 07:42:31;;;;;;;15.73;15.02;;;11.10;99.90;;;;;;4974423;28;20480;-70
2022/12/29 07:44:59;;;;;;;16.00;15.30;;;11.00;99.90;;;;;;4976777;28;20043;-71
2022/12/29 07:47:32;;;;;;;15.73;15.10;;;11.00;99.90;;;;;;4974934;28;20471;-71
2022/12/29 07:49:59;;;;;;;15.95;15.25;;;11.00;99.90;;;;;;4990435;28;20082;-70
2022/12/29 07:52:26;;;;;;;17.20;16.10;;;11.00;99.90;;;;;;4974396;28;20301;-70
2022/12/29 07:54:53;;;;;;;16.60;15.70;;;11.00;99.90;;;;;;4977788;28;20054;-74
2022/12/29 07:57:19;;;;;;;16.40;15.60;;;11.00;99.90;;;;;;4973357;28;20403;-72
2022/12/29 07:59:52;;;;;;;16.02;15.23;;;11.00;99.90;;;;;;4976138;28;20416;-71
2022/12/29 08:02:18;;;;;;;16.17;15.40;;;10.90;99.90;;;;;;4972464;28;20046;-71
2022/12/29 08:04:45;;;;;;;15.77;15.07;;;10.80;99.90;;;;;;4978737;28;20752;-71
2022/12/29 08:07:12;;;;;;;14.80;14.20;;;10.70;99.90;;;;;;4977243;28;20038;-72
2022/12/29 08:09:39;;;;;;;14.13;13.43;;;10.70;99.90;;;;;;4972862;28;20579;-72
2022/12/29 08:12:05;;;;;;;14.15;13.43;;;10.60;99.90;;;;;;4975095;28;20047;-71
2022/12/29 08:14:32;;;;;;;13.70;12.82;;;10.50;99.90;;;;;;4957197;28;20038;-72
2022/12/29 08:16:59;;;;;;;12.88;12.38;;;10.40;99.90;;;;;;4976987;28;20057;-74
2022/12/29 08:19:25;;;;;;;13.35;12.85;;;10.40;99.90;;;;;;4973916;28;20286;-73
2022/12/29 08:21:53;;;;;;;13.40;12.80;;;10.30;99.90;;;;;;4973189;28;20049;-73
2022/12/29 08:24:19;;;;;;;13.98;13.27;;;10.30;99.90;;;;;;4973303;28;20065;-75
2022/12/29 08:26:46;;;;;;;10.52;10.10;;;10.30;99.90;;;;;;4977670;28;20034;-75
2022/12/29 08:29:13;;;;;;;10.43;9.80;;;10.20;99.90;;;;;;4977987;28;20046;-74
2022/12/29 08:31:40;;;;;;;9.50;8.93;;;10.10;99.90;;;;;;4973322;28;20048;-74
2022/12/29 08:34:06;;;;;;;10.00;9.50;;;10.00;99.90;;;;;;4976717;28;20493;-74
2022/12/29 08:36:33;;;;;;;14.65;13.95;;;10.00;99.90;;;;;;4977575;28;20517;-76
2022/12/29 08:39:00;;;;;;;17.23;16.52;;;10.00;99.90;;;;;;4961727;28;20413;-76
2022/12/29 08:41:26;;;;;;;17.30;16.23;;;10.10;99.90;;;;;;4976934;28;20058;-74
2022/12/29 08:43:53;;;;;;;16.75;16.05;;;10.10;99.90;;;;;;4979053;28;20050;-75
2022/12/29 08:46:20;;;;;;;13.88;13.18;;;10.00;99.90;;;;;;4976972;28;20401;-75
2022/12/29 08:48:46;;;;;;;12.23;11.63;;;10.00;99.90;;;;;;4980624;28;20074;-75
2022/12/29 08:51:13;;;;;;;12.30;11.80;;;10.00;99.90;;;;;;4961226;28;20542;-73
2022/12/29 08:53:42;;;;;;;11.13;10.32;;;9.90;99.90;;;;;;4976627;28;20043;-76
2022/12/29 08:56:09;;;;;;;10.82;10.15;;;9.80;99.90;;;;;;4979344;28;20034;-74
2022/12/29 08:58:44;;;;;;;13.50;12.80;;;9.70;99.90;;;;;;4994802;28;20214;-76
2022/12/29 09:01:11;;;;;;;11.60;11.10;;;9.70;99.90;;;;;;4946854;23;20064;-73
2022/12/29 09:03:38;;;;;;;11.50;10.90;;;9.60;99.90;;;;;;4994707;28;20046;-73
2022/12/29 09:06:24;;;;;;;11.15;10.48;;;9.60;99.90;;;;;;5021888;28;20046;-73
2022/12/29 09:08:53;;;;;;;12.93;12.00;;;9.50;99.90;;;;;;4998901;28;20123;-73
2022/12/29 09:11:23;;;;;;;12.40;11.60;;;9.60;99.90;;;;;;4993916;28;20096;-72
2022/12/29 09:13:50;;;;;;;11.02;10.50;;;9.60;99.90;;;;;;4996299;28;20121;-75
2022/12/29 09:16:17;;;;;;;11.50;10.98;;;9.60;99.90;;;;;;5024841;28;20963;-76
2022/12/29 09:18:44;;;;;;;11.30;10.73;;;9.60;99.90;;;;;;4997567;28;20034;-76
2022/12/29 09:21:12;;;;;;;12.88;12.10;;;9.60;99.90;;;;;;4977972;28;20044;-76
2022/12/29 09:23:40;;;;;;;13.38;12.57;;;9.50;99.90;;;;;;5004828;28;20547;-77
2022/12/29 09:26:07;;;;;;;12.48;11.75;;;9.60;99.90;;;;;;4994046;28;20088;-77
2022/12/29 09:28:34;;;;;;;12.98;11.85;;;9.60;99.90;;;;;;5002395;28;20046;-76
2022/12/29 09:31:02;;;;;;;11.82;11.10;;;9.70;99.90;;;;;;4993186;28;20124;-76
2022/12/29 09:33:29;;;;;;;13.38;12.65;;;9.70;99.90;;;;;;4974973;28;20496;-76
2022/12/29 09:35:58;;;;;;;13.95;13.15;;;9.70;99.90;;;;;;4991103;28;20042;-76
2022/12/29 09:38:26;;;;;;;13.07;12.32;;;9.90;99.90;;;;;;4973506;28;20045;-76
2022/12/29 09:41:15;;;;;;;12.00;11.30;;;9.80;99.90;;;;;;4995586;28;20711;-76
2022/12/29 09:44:08;;;;;;;12.20;11.25;;;9.90;99.90;;;;;;4996013;28;20066;-75
2022/12/29 09:46:40;;;;;;;12.15;11.40;;;9.90;99.90;;;;;;5008464;28;20548;-76
2022/12/29 09:49:13;;;;;;;13.13;11.93;;;9.90;99.90;;;;;;4989673;28;20061;-76
2022/12/29 09:51:45;;;;;;;14.70;14.00;;;9.90;99.90;;;;;;4976790;28;20462;-76
2022/12/29 09:54:32;;;;;;;16.27;15.48;;;10.00;99.90;;;;;;4996019;28;20041;-76
2022/12/29 09:56:59;;;;;;;15.90;15.20;;;10.00;99.90;;;;;;4993525;28;20074;-75
2022/12/29 09:59:43;;;;;;;15.15;14.55;;;10.00;99.90;;;;;;4993712;28;20040;-76
2022/12/29 10:02:31;;;;;;;16.40;15.43;;;10.10;99.90;;;;;;5019328;28;20116;-77
2022/12/29 10:04:58;;;;;;;18.30;17.40;;;10.10;99.90;;;;;;5023462;28;20089;-76
2022/12/29 10:07:36;;;;;;;18.95;17.98;;;10.10;99.90;;;;;;4996635;28;20042;-75
2022/12/29 10:10:43;;;;;;;18.10;17.20;;;10.20;99.90;;;;;;4993403;28;20050;-75
2022/12/29 10:13:25;;;;;;;20.98;19.95;;;10.30;99.90;;;;;;4950023;28;20050;-75
2022/12/29 10:16:11;;;;;;;18.52;17.38;;;10.30;99.90;;;;;;4972780;28;20077;-75
2022/12/29 10:19:03;;;;;;;17.58;16.73;;;10.30;99.90;;;;;;4987713;28;20046;-75
2022/12/29 10:21:48;;;;;;;17.35;16.48;;;10.30;99.90;;;;;;4982919;28;20042;-75
2022/12/29 10:24:16;;;;;;;17.40;16.60;;;10.20;99.90;;;;;;4985145;28;20081;-74
2022/12/29 10:26:45;;;;;;;15.90;14.88;;;10.10;99.90;;;;;;4984147;28;20045;-76
2022/12/29 10:29:15;;;;;;;17.15;16.05;;;10.10;99.90;;;;;;4992274;28;20149;-76
2022/12/29 10:32:27;;;;;;;17.40;16.60;;;10.10;99.90;;;;;;4995147;28;20873;-76
2022/12/29 10:34:58;;;;;;;17.63;16.73;;;10.10;99.90;;;;;;4983977;28;20053;-75
2022/12/29 10:37:59;;;;;;;16.98;16.10;;;10.10;99.90;;;;;;4995296;28;20046;-76
2022/12/29 10:40:35;;;;;;;16.30;15.57;;;10.00;99.90;;;;;;4994636;28;20285;-76
2022/12/29 10:43:17;;;;;;;18.60;17.45;;;10.00;99.90;;;;;;4996747;28;20252;-77
2022/12/29 10:45:48;;;;;;;18.67;17.45;;;10.00;99.90;;;;;;4991907;28;20076;-76
2022/12/29 10:48:24;;;;;;;17.98;16.77;;;10.00;99.90;;;;;;4990069;28;20133;-75
2022/12/29 10:51:00;;;;;;;15.70;14.70;;;9.90;99.90;;;;;;4996227;28;20050;-77
2022/12/29 10:53:45;;;;;;;10.63;9.75;;;9.70;99.90;;;;;;5002427;28;20041;-77
2022/12/29 10:56:39;;;;;;;7.20;6.55;;;9.40;99.90;;;;;;5002921;28;20309;-77
2022/12/29 10:59:20;;;;;;;6.38;5.97;;;9.00;99.90;;;;;;4993750;28;20574;-76
2022/12/29 11:02:08;;;;;;;6.95;6.50;;;8.90;99.90;;;;;;4993765;28;20089;-77
2022/12/29 11:05:04;;;;;;;8.07;6.93;;;8.90;99.90;;;;;;5016028;28;20680;-77
2022/12/29 11:07:31;;;;;;;6.57;5.90;;;9.00;99.90;;;;;;5001707;28;20038;-77
2022/12/29 11:10:29;;;;;;;7.53;6.60;;;9.20;99.90;;;;;;4992714;28;20050;-76
2022/12/29 11:13:11;;;;;;;9.75;9.05;;;9.30;99.90;;;;;;4994535;28;20056;-77
2022/12/29 11:15:40;;;;;;;13.23;9.70;;;9.40;99.90;;;;;;4997754;28;20042;-86
2022/12/29 11:18:20;;;;;;;10.88;9.90;;;9.30;99.90;;;;;;5025890;28;20314;-87
2022/12/29 11:20:48;;;;;;;9.98;9.13;;;9.30;99.90;;;;;;4988244;28;20053;-76
2022/12/29 11:23:32;;;;;;;15.10;13.95;;;9.40;99.90;;;;;;4988252;28;20046;-76
2022/12/29 11:26:20;;;;;;;14.80;13.77;;;9.60;99.90;;;;;;5003754;28;20053;-76
2022/12/29 11:29:03;;;;;;;16.88;15.60;;;9.80;99.90;;;;;;5020279;28;20491;-77
2022/12/29 11:31:31;;;;;;;16.15;15.23;;;9.90;99.90;;;;;;4972058;28;20053;-76
2022/12/29 11:33:57;;;;;;;17.05;15.93;;;10.00;99.90;;;;;;4994547;28;20287;-76
2022/12/29 11:36:24;;;;;;;17.42;16.35;;;10.10;99.90;;;;;;4989985;28;20451;-76
2022/12/29 11:38:53;;;;;;;17.48;16.55;;;10.20;99.90;;;;;;4990462;28;20141;-76
2022/12/29 11:41:29;;;;;;;18.88;17.48;;;10.10;99.90;;;;;;4988044;28;20041;-76
2022/12/29 11:44:02;;;;;;;17.92;16.80;;;10.20;99.90;;;;;;4993585;28;20060;-76
2022/12/29 11:46:38;;;;;;;19.48;18.38;;;10.10;99.90;;;;;;4988344;28;20050;-76
2022/12/29 11:49:05;;;;;;;18.48;17.38;;;10.10;99.90;;;;;;4987355;28;20136;-76
2022/12/29 11:51:58;;;;;;;18.98;17.88;;;10.30;99.90;;;;;;4987102;28;20141;-76
2022/12/29 11:54:27;;;;;;;17.33;16.33;;;10.20;99.90;;;;;;4987066;28;20054;-76
2022/12/29 11:56:55;;;;;;;18.02;16.70;;;10.30;99.90;;;;;;4993698;28;20144;-76
2022/12/29 11:59:29;;;;;;;19.23;18.23;;;10.30;99.90;;;;;;4991225;28;20042;-76
2022/12/29 12:01:58;;;;;;;20.77;19.38;;;10.20;99.90;;;;;;4993029;28;20526;-76
2022/12/29 12:04:30;;;;;;;20.15;19.00;;;10.10;99.90;;;;;;4998355;28;20084;-76
2022/12/29 12:07:25;;;;;;;20.17;18.90;;;10.20;99.90;;;;;;4998866;28;20046;-76
2022/12/29 12:09:57;;;;;;;21.42;20.13;;;10.10;99.90;;;;;;4992342;28;20404;-76
2022/12/29 12:12:51;;;;;;;23.45;21.65;;;10.10;99.90;;;;;;5022453;28;20201;-75
2022/12/29 12:15:20;;;;;;;;;;;10.10;99.90;;;;;;4993767;28;20547;-76
2022/12/29 12:18:10;;;;;;;21.05;19.95;;;10.10;99.90;;;;;;4993140;28;19925;-75
2022/12/29 12:21:26;;;;;;;25.67;23.55;;;10.10;99.90;;;;;;4992402;28;20042;-75
2022/12/29 12:24:23;;;;;;;22.25;20.77;;;10.00;99.90;;;;;;4992610;28;20563;-74
2022/12/29 12:27:11;;;;;;;23.33;21.38;;;10.00;99.90;;;;;;4992848;28;20742;-76
2022/12/29 12:29:56;;;;;;;20.98;19.73;;;10.00;99.90;;;;;;4993884;28;20135;-75
2022/12/29 12:32:52;;;;;;;19.17;18.27;;;10.00;99.90;;;;;;5015721;28;20160;-75
2022/12/29 12:35:39;;;;;;;;;;;10.10;99.90;;;;;;5007792;28;20539;-74
2022/12/29 12:38:43;;;;;;;20.33;19.02;;;10.00;99.90;;;;;;4993170;28;19929;-74
2022/12/29 12:41:16;;;;;;;18.63;17.63;;;10.10;99.90;;;;;;4975413;28;20657;-74
2022/12/29 12:44:00;;;;;;;19.77;18.65;;;10.10;99.90;;;;;;4999516;28;20046;-74
2022/12/29 12:46:52;;;;;;;21.20;20.15;;;10.10;99.90;;;;;;4993081;28;20056;-74
2022/12/29 12:49:51;;;;;;;20.63;19.42;;;10.00;99.90;;;;;;4989466;28;20299;-74
2022/12/29 12:52:42;;;;;;;20.42;19.33;;;10.00;99.90;;;;;;4988065;28;20046;-73
2022/12/29 12:55:47;;;;;;;19.80;18.77;;;10.00;99.90;;;;;;4997050;28;20057;-74
2022/12/29 12:58:51;;;;;;;27.02;25.63;;;10.00;99.90;;;;;;4998256;28;20042;-74
2022/12/29 13:01:24;;;;;;;21.23;19.73;;;10.00;99.90;;;;;;5006302;28;20673;-74
2022/12/29 13:04:25;;;;;;;21.27;19.77;;;10.00;99.90;;;;;;4994935;28;20455;-74
2022/12/29 13:07:27;;;;;;;20.25;18.88;;;9.90;99.90;;;;;;4988611;28;20050;-74
2022/12/29 13:10:04;;;;;;;20.98;19.60;;;9.90;99.90;;;;;;4990895;28;20060;-74
2022/12/29 13:13:02;;;;;;;20.33;19.13;;;10.00;99.90;;;;;;4994648;28;20447;-74
2022/12/29 13:15:56;;;;;;;21.02;19.60;;;10.00;99.90;;;;;;4970803;28;20050;-74
2022/12/29 13:18:53;;;;;;;20.48;19.25;;;9.90;99.90;;;;;;5006385;28;20099;-74
2022/12/29 13:21:37;;;;;;;22.17;20.20;;;9.90;99.90;;;;;;4988438;28;20073;-74
2022/12/29 13:24:20;;;;;;;20.40;18.95;;;10.00;99.90;;;;;;4988752;28;20049;-73
2022/12/29 13:26:54;;;;;;;20.10;18.70;;;10.00;99.90;;;;;;4992006;28;20042;-75
2022/12/29 13:29:54;;;;;;;21.83;20.20;;;10.00;99.90;;;;;;4988951;28;20615;-74
2022/12/29 13:32:27;;;;;;;22.27;20.45;;;9.90;99.90;;;;;;4970188;28;20160;-74
2022/12/29 13:35:19;;;;;;;21.42;19.98;;;9.90;99.90;;;;;;4982991;28;20054;-73
2022/12/29 13:38:00;;;;;;;19.00;17.30;;;9.90;99.90;;;;;;4969669;28;20050;-74
2022/12/29 13:40:33;;;;;;;18.88;17.40;;;9.90;99.90;;;;;;4971599;28;20652;-74
2022/12/29 13:43:01;;;;;;;17.10;16.08;;;9.90;99.90;;;;;;4969612;28;20130;-74
2022/12/29 13:45:32;;;;;;;17.08;15.05;;;9.80;99.90;;;;;;4975291;28;20156;-73